createdAt,value
2019-01-06T00:02:15.437Z,87.70
2019-01-06T00:04:49.164Z,87.60
2019-01-06T00:07:22.771Z,87.70
2019-01-06T00:09:56.332Z,87.40
2019-01-06T00:12:27.164Z,87.40
2019-01-06T00:14:57.960Z,87.10
2019-01-06T00:17:28.785Z,87.10
2019-01-06T00:20:18.078Z,87.00
2019-01-06T00:23:03.972Z,87.20
2019-01-06T00:25:50.957Z,87.00
2019-01-06T00:28:30.531Z,86.80
2019-01-06T00:31:01.366Z,86.80
2019-01-06T00:33:38.200Z,86.70
2019-01-06T00:36:09.037Z,86.60
2019-01-06T00:38:45.957Z,86.60
2019-01-06T00:41:29.092Z,86.60
2019-01-06T00:43:59.930Z,86.50
2019-01-06T00:46:33.628Z,86.50
2019-01-06T00:49:04.461Z,86.20
2019-01-06T00:51:50.450Z,86.10
2019-01-06T00:54:36.143Z,86.20
2019-01-06T00:57:25.206Z,86.20
2019-01-06T00:59:59.249Z,86.00
2019-01-06T01:02:45.349Z,86.30
2019-01-06T01:05:28.240Z,86.30
2019-01-06T01:08:15.340Z,86.50
2019-01-06T01:11:01.460Z,86.30
2019-01-06T01:13:34.949Z,86.40
2019-01-06T01:16:22.131Z,86.40
2019-01-06T01:18:58.915Z,86.40
2019-01-06T01:21:29.742Z,86.30
2019-01-06T01:24:15.573Z,86.20
2019-01-06T01:26:48.973Z,86.10
2019-01-06T01:29:19.780Z,86.20
2019-01-06T01:32:08.855Z,86.00
2019-01-06T01:34:54.722Z,85.90
2019-01-06T01:37:28.472Z,85.70
2019-01-06T01:39:59.279Z,85.40
2019-01-06T01:42:42.407Z,85.60
2019-01-06T01:45:25.523Z,85.90
2019-01-06T01:48:13.054Z,86.00
2019-01-06T01:50:43.963Z,86.00
2019-01-06T01:53:17.755Z,86.00
2019-01-06T01:55:48.619Z,86.20
2019-01-06T01:58:19.455Z,86.10
2019-01-06T02:01:02.227Z,86.20
2019-01-06T02:03:42.072Z,86.40
2019-01-06T02:06:22.058Z,86.40
2019-01-06T02:09:09.424Z,86.50
2019-01-06T02:11:52.463Z,86.50
2019-01-06T02:14:24.244Z,86.60
2019-01-06T02:17:11.624Z,86.60
2019-01-06T02:19:52.430Z,86.40
2019-01-06T02:22:41.685Z,86.40
2019-01-06T02:25:29.310Z,86.40
2019-01-06T02:28:00.210Z,86.40
2019-01-06T02:30:31.100Z,86.30
2019-01-06T02:33:18.379Z,86.40
2019-01-06T02:36:05.423Z,86.50
2019-01-06T02:38:44.975Z,86.50
2019-01-06T02:41:27.893Z,86.40
2019-01-06T02:44:04.591Z,86.50
2019-01-06T02:46:47.293Z,86.50
2019-01-06T02:49:36.071Z,86.50
2019-01-06T02:52:09.758Z,86.30
2019-01-06T02:54:43.288Z,86.30
2019-01-06T02:57:23.485Z,86.30
2019-01-06T03:00:10.792Z,86.20
2019-01-06T03:02:41.621Z,86.20
2019-01-06T03:05:15.245Z,86.20
2019-01-06T03:07:52.018Z,86.10
2019-01-06T03:10:28.603Z,86.30
2019-01-06T03:12:59.451Z,86.20
2019-01-06T03:15:30.346Z,86.30
2019-01-06T03:18:13.298Z,86.10
2019-01-06T03:21:02.480Z,86.20
2019-01-06T03:23:36.350Z,86.30
2019-01-06T03:26:07.201Z,86.20
2019-01-06T03:28:56.274Z,86.10
2019-01-06T03:31:32.865Z,85.80
2019-01-06T03:34:03.720Z,85.90
2019-01-06T03:36:37.381Z,85.80
2019-01-06T03:39:08.277Z,85.70
2019-01-06T03:41:55.443Z,85.80
2019-01-06T03:44:29.454Z,85.70
2019-01-06T03:47:03.337Z,85.90
2019-01-06T03:49:37.061Z,85.90
2019-01-06T03:52:13.822Z,86.00
2019-01-06T03:54:44.675Z,86.00
2019-01-06T03:57:32.102Z,85.90
2019-01-06T04:00:02.942Z,85.90
2019-01-06T04:02:33.786Z,86.00
2019-01-06T04:05:21.631Z,86.20
2019-01-06T04:08:07.665Z,86.50
2019-01-06T04:10:38.498Z,86.50
2019-01-06T04:13:12.398Z,86.50
2019-01-06T04:15:49.004Z,86.70
2019-01-06T04:18:38.227Z,86.80
2019-01-06T04:21:09.093Z,86.80
2019-01-06T04:23:39.955Z,86.80
2019-01-06T04:26:26.954Z,86.90
2019-01-06T04:29:03.542Z,86.90
2019-01-06T04:31:50.870Z,86.90
2019-01-06T04:34:24.851Z,86.90
2019-01-06T04:36:55.681Z,86.90
2019-01-06T04:39:26.541Z,87.00
2019-01-06T04:41:57.586Z,87.00
2019-01-06T04:44:41.355Z,87.00
2019-01-06T04:47:12.183Z,87.10
2019-01-06T04:49:52.174Z,87.10
2019-01-06T04:52:23.011Z,87.20
2019-01-06T04:54:56.910Z,87.30
2019-01-06T04:57:36.656Z,87.40
2019-01-06T05:00:12.315Z,87.30
2019-01-06T05:02:43.163Z,87.50
2019-01-06T05:05:23.083Z,87.70
2019-01-06T05:07:53.946Z,88.00
2019-01-06T05:10:39.781Z,88.50
2019-01-06T05:13:10.635Z,89.00
2019-01-06T05:15:41.467Z,89.10
2019-01-06T05:18:28.450Z,89.10
2019-01-06T05:21:15.880Z,89.20
2019-01-06T05:23:53.131Z,89.10
2019-01-06T05:26:40.191Z,89.10
2019-01-06T05:29:27.521Z,88.90
2019-01-06T05:31:58.355Z,88.90
2019-01-06T05:34:44.542Z,89.00
2019-01-06T05:37:18.622Z,88.90
2019-01-06T05:39:49.484Z,88.90
2019-01-06T05:42:36.786Z,88.70
2019-01-06T05:45:07.641Z,88.70
2019-01-06T05:47:54.978Z,88.60
2019-01-06T05:50:28.782Z,88.50
2019-01-06T05:53:16.156Z,88.40
2019-01-06T05:55:47.012Z,88.30
2019-01-06T05:58:20.288Z,88.30
2019-01-06T06:00:51.140Z,88.30
2019-01-06T06:03:30.967Z,88.30
2019-01-06T06:06:01.802Z,88.40
2019-01-06T06:08:44.671Z,88.40
2019-01-06T06:11:18.495Z,88.50
2019-01-06T06:13:55.451Z,88.60
2019-01-06T06:16:38.254Z,88.60
2019-01-06T06:19:25.691Z,88.60
2019-01-06T06:21:56.518Z,88.70
2019-01-06T06:24:30.327Z,88.70
2019-01-06T06:27:17.510Z,88.70
2019-01-06T06:29:54.337Z,88.70
2019-01-06T06:32:28.149Z,88.70
2019-01-06T06:35:14.209Z,88.70
2019-01-06T06:37:47.806Z,88.60
2019-01-06T06:40:24.411Z,88.60
2019-01-06T06:42:55.276Z,88.50
2019-01-06T06:45:29.035Z,88.40
2019-01-06T06:48:15.185Z,88.40
2019-01-06T06:51:02.271Z,88.30
2019-01-06T06:53:48.452Z,88.00
2019-01-06T06:56:25.189Z,87.90
2019-01-06T06:58:56.042Z,88.00
2019-01-06T07:01:29.335Z,88.00
2019-01-06T07:04:00.197Z,88.00
2019-01-06T07:06:39.863Z,87.70
2019-01-06T07:09:25.501Z,87.50
2019-01-06T07:12:02.419Z,87.50
2019-01-06T07:14:51.320Z,87.40
2019-01-06T07:17:58.614Z,87.30
2019-01-06T07:20:40.161Z,87.30
2019-01-06T07:23:10.997Z,87.40
2019-01-06T07:25:41.865Z,87.10
2019-01-06T07:28:13.003Z,86.80
2019-01-06T07:30:49.849Z,86.80
2019-01-06T07:33:37.128Z,86.70
2019-01-06T07:36:11.312Z,86.90
2019-01-06T07:38:51.394Z,86.70
2019-01-06T07:41:37.255Z,86.80
2019-01-06T07:44:08.105Z,86.80
2019-01-06T07:46:41.618Z,86.80
2019-01-06T07:49:21.401Z,87.00
2019-01-06T07:51:57.984Z,87.00
2019-01-06T07:54:34.541Z,87.00
2019-01-06T07:57:21.872Z,87.00
2019-01-06T07:59:52.729Z,86.90
2019-01-06T08:02:26.706Z,86.90
2019-01-06T08:05:00.254Z,86.90
2019-01-06T08:07:43.046Z,87.00
2019-01-06T08:10:30.383Z,86.90
2019-01-06T08:13:19.499Z,87.00
2019-01-06T08:15:59.539Z,86.90
2019-01-06T08:18:45.653Z,86.90
2019-01-06T08:21:31.369Z,86.90
2019-01-06T08:24:08.163Z,86.80
2019-01-06T08:26:48.145Z,86.80
2019-01-06T08:29:21.933Z,86.60
2019-01-06T08:32:04.585Z,86.40
2019-01-06T08:34:35.456Z,86.20
2019-01-06T08:37:12.022Z,85.90
2019-01-06T08:39:49.167Z,85.90
2019-01-06T08:42:36.467Z,85.80
2019-01-06T08:45:25.929Z,85.90
2019-01-06T08:48:08.742Z,85.90
2019-01-06T08:50:55.882Z,85.80
2019-01-06T08:53:32.757Z,85.40
2019-01-06T08:56:06.502Z,85.40
2019-01-06T08:58:40.048Z,85.50
2019-01-06T09:01:16.703Z,85.30
2019-01-06T09:03:53.425Z,85.00
2019-01-06T09:06:42.573Z,84.80
2019-01-06T09:09:28.463Z,84.70
2019-01-06T09:12:08.055Z,84.00
2019-01-06T09:14:55.344Z,83.80
2019-01-06T09:17:44.433Z,83.70
2019-01-06T09:20:24.431Z,83.20
2019-01-06T09:23:11.732Z,83.30
2019-01-06T09:25:57.922Z,82.60
2019-01-06T09:28:28.794Z,82.30
2019-01-06T09:31:08.377Z,82.90
2019-01-06T09:33:41.648Z,83.10
2019-01-06T09:36:29.231Z,83.20
2019-01-06T09:39:06.504Z,84.00
2019-01-06T09:41:37.642Z,84.10
2019-01-06T09:44:11.488Z,84.10
2019-01-06T09:46:42.310Z,83.70
2019-01-06T09:49:15.705Z,83.90
2019-01-06T09:51:46.542Z,83.70
2019-01-06T09:54:20.401Z,83.70
2019-01-06T09:57:06.348Z,83.70
2019-01-06T09:59:53.718Z,83.30
2019-01-06T10:02:25.002Z,82.90
2019-01-06T10:04:58.814Z,82.40
2019-01-06T10:07:29.699Z,82.20
2019-01-06T10:10:03.450Z,81.90
2019-01-06T10:12:40.498Z,82.20
2019-01-06T10:15:23.384Z,82.40
2019-01-06T10:17:54.385Z,82.50
2019-01-06T10:20:28.107Z,82.60
2019-01-06T10:22:58.934Z,82.80
2019-01-06T10:25:46.481Z,82.60
2019-01-06T10:28:29.417Z,83.00
2019-01-06T10:31:03.214Z,82.30
2019-01-06T10:33:45.782Z,82.30
2019-01-06T10:36:32.031Z,82.20
2019-01-06T10:39:19.370Z,82.30
2019-01-06T10:42:06.770Z,82.70
2019-01-06T10:44:54.066Z,83.00
2019-01-06T10:47:24.909Z,83.00
2019-01-06T10:50:07.781Z,83.60
2019-01-06T10:52:55.362Z,84.10
2019-01-06T10:55:38.600Z,83.90
2019-01-06T10:58:21.403Z,84.20
2019-01-06T11:00:55.206Z,84.20
2019-01-06T11:03:26.058Z,84.40
2019-01-06T11:06:13.162Z,84.40
2019-01-06T11:08:49.788Z,84.50
2019-01-06T11:11:37.125Z,84.60
2019-01-06T11:14:07.968Z,84.30
2019-01-06T11:16:55.163Z,84.20
2019-01-06T11:19:40.948Z,84.00
2019-01-06T11:22:14.501Z,83.70
2019-01-06T11:24:48.143Z,83.50
2019-01-06T11:27:29.367Z,83.50
2019-01-06T11:30:00.236Z,83.30
2019-01-06T11:32:47.401Z,83.20
2019-01-06T11:35:18.250Z,83.00
2019-01-06T11:38:00.688Z,83.00
2019-01-06T11:40:37.344Z,83.00
2019-01-06T11:43:14.240Z,83.20
2019-01-06T11:46:01.039Z,83.30
2019-01-06T11:48:31.902Z,83.20
2019-01-06T11:51:20.918Z,82.70
2019-01-06T11:53:54.563Z,82.50
2019-01-06T11:56:42.243Z,82.20
2019-01-06T11:59:29.353Z,82.60
2019-01-06T12:02:12.064Z,82.50
2019-01-06T12:04:48.613Z,82.40
2019-01-06T12:07:35.695Z,82.50
2019-01-06T12:10:24.857Z,82.50
2019-01-06T12:13:12.333Z,82.50
2019-01-06T12:15:59.757Z,83.10
2019-01-06T12:18:42.512Z,83.30
2019-01-06T12:21:31.598Z,83.40
2019-01-06T12:24:18.950Z,83.60
2019-01-06T12:26:49.789Z,83.90
2019-01-06T12:29:41.916Z,84.30
2019-01-06T12:32:25.101Z,83.50
2019-01-06T12:35:14.367Z,83.50
2019-01-06T12:37:51.296Z,83.60
2019-01-06T12:40:37.488Z,83.80
2019-01-06T12:43:23.290Z,83.80
2019-01-06T12:46:00.076Z,84.00
2019-01-06T12:48:52.112Z,84.50
2019-01-06T12:51:43.416Z,84.80
2019-01-06T12:54:26.711Z,84.90
2019-01-06T12:57:00.566Z,84.90
2019-01-06T12:59:44.103Z,85.00
2019-01-06T13:02:17.759Z,85.10
2019-01-06T13:04:48.627Z,85.30
2019-01-06T13:07:25.107Z,85.20
2019-01-06T13:10:00.005Z,85.50
2019-01-06T13:12:34.267Z,85.70
2019-01-06T13:15:24.105Z,85.90
2019-01-06T13:18:11.572Z,86.00
2019-01-06T13:23:54.754Z,86.20
2019-01-06T13:26:28.122Z,86.20
2019-01-06T13:29:01.579Z,85.90
2019-01-06T13:31:32.417Z,86.00
2019-01-06T13:34:12.550Z,86.00
2019-01-06T13:36:43.386Z,86.30
2019-01-06T13:39:16.755Z,86.10
2019-01-06T13:41:50.660Z,86.50
2019-01-06T13:44:30.651Z,86.40
2019-01-06T13:47:10.263Z,86.60
2019-01-06T13:49:43.823Z,86.60
2019-01-06T13:52:30.214Z,86.80
2019-01-06T13:55:01.059Z,86.80
2019-01-06T13:57:43.979Z,87.00
2019-01-06T14:00:31.770Z,87.00
2019-01-06T14:03:02.593Z,87.10
2019-01-06T14:05:33.443Z,87.30
2019-01-06T14:08:31.134Z,87.30
2019-01-06T14:11:13.963Z,87.20
2019-01-06T14:13:50.605Z,87.20
2019-01-06T14:16:37.875Z,87.40
2019-01-06T14:19:11.680Z,87.00
2019-01-06T14:21:51.761Z,86.70
2019-01-06T14:24:29.348Z,86.50
2019-01-06T14:27:18.546Z,86.90
2019-01-06T14:29:57.505Z,86.90
2019-01-06T14:32:45.103Z,86.80
2019-01-06T14:35:32.413Z,86.90
2019-01-06T14:38:21.590Z,86.80
2019-01-06T14:40:52.615Z,86.80
2019-01-06T14:43:26.331Z,86.80
2019-01-06T14:46:15.222Z,87.00
2019-01-06T14:48:46.074Z,87.10
2019-01-06T14:51:16.899Z,87.00
2019-01-06T14:53:47.763Z,86.80
2019-01-06T14:56:34.821Z,86.90
2019-01-06T14:59:14.808Z,86.90
2019-01-06T15:01:48.686Z,86.90
2019-01-06T15:04:22.249Z,87.00
2019-01-06T15:07:04.669Z,87.00
2019-01-06T15:09:51.825Z,87.00
2019-01-06T15:12:40.995Z,87.00
2019-01-06T15:15:20.669Z,87.20
2019-01-06T15:17:51.615Z,87.20
2019-01-06T15:20:22.451Z,87.10
2019-01-06T15:22:55.814Z,87.10
2019-01-06T15:25:30.654Z,87.10
2019-01-06T15:28:17.710Z,87.10
2019-01-06T15:30:48.715Z,87.00
2019-01-06T15:33:37.702Z,87.10
2019-01-06T15:36:25.152Z,87.20
2019-01-06T15:39:01.777Z,87.20
2019-01-06T15:41:36.487Z,87.10
2019-01-06T15:44:23.599Z,87.10
2019-01-06T15:46:54.436Z,86.70
2019-01-06T15:49:31.035Z,86.60
2019-01-06T15:52:16.946Z,86.50
2019-01-06T15:55:04.248Z,86.30
2019-01-06T15:57:35.503Z,85.90
2019-01-06T16:00:09.515Z,85.90
2019-01-06T16:02:46.050Z,86.20
2019-01-06T16:05:34.224Z,86.10
2019-01-06T16:08:08.050Z,86.10
2019-01-06T16:10:45.059Z,85.80
2019-01-06T16:13:15.894Z,85.90
2019-01-06T16:15:55.837Z,85.90
2019-01-06T16:18:45.162Z,85.80
2019-01-06T16:21:27.794Z,85.70
2019-01-06T16:23:58.654Z,85.70
2019-01-06T16:26:29.502Z,85.70
2019-01-06T16:29:09.971Z,85.80
2019-01-06T16:31:57.170Z,85.90
2019-01-06T16:34:28.026Z,85.50
2019-01-06T16:37:07.611Z,85.60
2019-01-06T16:39:55.046Z,85.60
2019-01-06T16:42:25.977Z,85.40
2019-01-06T16:45:02.703Z,84.60
2019-01-06T16:47:39.785Z,84.20
2019-01-06T16:50:10.910Z,84.50
2019-01-06T16:52:50.933Z,84.70
2019-01-06T16:55:21.773Z,84.60
2019-01-06T16:57:55.578Z,84.80
2019-01-06T17:00:38.245Z,84.90
2019-01-06T17:03:15.890Z,84.90
2019-01-06T17:05:46.722Z,85.00
2019-01-06T17:08:33.824Z,84.90
2019-01-06T17:11:20.813Z,84.70
2019-01-06T17:13:58.077Z,84.60
2019-01-06T17:16:44.281Z,84.40
2019-01-06T17:19:31.593Z,84.50
2019-01-06T17:22:18.926Z,84.50
2019-01-06T17:25:06.205Z,84.40
2019-01-06T17:27:53.318Z,84.50
2019-01-06T17:30:40.378Z,84.20
2019-01-06T17:33:27.699Z,84.20
2019-01-06T17:36:10.570Z,84.60
2019-01-06T17:38:58.051Z,84.40
2019-01-06T17:41:28.945Z,84.20
2019-01-06T17:44:05.913Z,84.00
2019-01-06T17:46:48.962Z,84.00
2019-01-06T17:49:25.851Z,84.00
2019-01-06T17:52:02.635Z,83.90
2019-01-06T17:54:51.759Z,83.80
2019-01-06T17:57:37.618Z,83.80
2019-01-06T18:00:27.514Z,83.40
2019-01-06T18:02:58.381Z,83.20
2019-01-06T18:05:36.141Z,83.30
2019-01-06T18:08:23.594Z,83.50
2019-01-06T18:11:06.502Z,83.80
2019-01-06T18:13:55.418Z,84.00
2019-01-06T18:16:42.507Z,83.90
2019-01-06T18:19:29.462Z,83.90
2019-01-06T18:22:00.327Z,83.90
2019-01-06T18:24:31.169Z,84.00
2019-01-06T18:27:18.262Z,84.00
2019-01-06T18:30:05.304Z,84.10
2019-01-06T18:32:42.146Z,84.30
2019-01-06T18:35:24.862Z,84.40
2019-01-06T18:37:58.254Z,84.40
2019-01-06T18:40:36.139Z,84.40
2019-01-06T18:43:07.001Z,84.60
2019-01-06T18:45:54.387Z,84.50
2019-01-06T18:48:25.262Z,84.40
2019-01-06T18:50:56.097Z,84.00
2019-01-06T18:53:43.477Z,83.90
2019-01-06T18:56:30.771Z,83.90
2019-01-06T18:59:07.666Z,84.00
2019-01-06T19:01:38.523Z,83.90
2019-01-06T19:04:12.323Z,84.00
2019-01-06T19:06:59.436Z,83.90
2019-01-06T19:09:36.616Z,83.60
2019-01-06T19:12:23.964Z,83.60
2019-01-06T19:15:03.997Z,83.70
2019-01-06T19:17:49.902Z,83.70
2019-01-06T19:20:20.773Z,83.50
2019-01-06T19:22:51.610Z,83.40
2019-01-06T19:25:39.013Z,83.50
2019-01-06T19:28:09.846Z,83.10
2019-01-06T19:30:46.596Z,83.30
2019-01-06T19:33:20.411Z,83.20
2019-01-06T19:36:00.327Z,83.40
2019-01-06T19:38:31.514Z,83.40
2019-01-06T19:41:08.302Z,83.40
2019-01-06T19:43:39.170Z,83.60
2019-01-06T19:46:10.004Z,83.50
2019-01-06T19:48:49.863Z,83.50
2019-01-06T19:51:26.727Z,83.30
2019-01-06T19:54:09.639Z,83.10
2019-01-06T19:56:49.644Z,83.00
2019-01-06T19:59:35.447Z,82.90
2019-01-06T20:02:09.253Z,83.10
2019-01-06T20:04:40.191Z,83.30
2019-01-06T20:07:11.026Z,83.50
2019-01-06T20:09:41.914Z,82.80
2019-01-06T20:12:12.756Z,82.70
2019-01-06T20:14:46.618Z,82.70
2019-01-06T20:17:20.446Z,82.50
2019-01-06T20:19:54.381Z,82.50
2019-01-06T20:22:41.950Z,82.60
2019-01-06T20:25:15.761Z,82.60
2019-01-06T20:28:04.615Z,82.50
2019-01-06T20:30:41.175Z,82.50
2019-01-06T20:33:17.786Z,82.70
2019-01-06T20:35:51.323Z,82.70
2019-01-06T20:38:31.211Z,82.80
2019-01-06T20:41:18.583Z,82.90
2019-01-06T20:43:52.255Z,83.10
2019-01-06T20:46:39.396Z,83.40
2019-01-06T20:49:22.556Z,83.30
2019-01-06T20:51:59.467Z,83.70
2019-01-06T20:54:46.722Z,83.90
2019-01-06T20:57:27.091Z,84.00
2019-01-06T21:00:04.576Z,84.00
2019-01-06T21:02:43.063Z,84.20
2019-01-06T21:05:19.937Z,84.40
2019-01-06T21:08:07.064Z,84.60
2019-01-06T21:10:56.051Z,84.60
2019-01-06T21:13:45.182Z,84.30
2019-01-06T21:16:25.067Z,84.30
2019-01-06T21:19:07.750Z,84.50
2019-01-06T21:21:41.302Z,84.60
2019-01-06T21:24:12.177Z,84.50
2019-01-06T21:26:43.009Z,84.50
2019-01-06T21:29:13.921Z,84.30
2019-01-06T21:31:56.793Z,84.70
2019-01-06T21:34:33.616Z,84.80
2019-01-06T21:37:22.383Z,84.80
2019-01-06T21:39:53.367Z,84.90
2019-01-06T21:42:24.223Z,84.70
2019-01-06T21:45:00.930Z,84.70
2019-01-06T21:47:47.969Z,84.60
2019-01-06T21:50:21.558Z,84.60
2019-01-06T21:53:01.447Z,84.60
2019-01-06T21:55:44.282Z,84.50
2019-01-06T21:58:33.651Z,84.50
2019-01-06T22:01:21.034Z,84.60
2019-01-06T22:03:55.805Z,84.60
2019-01-06T22:06:26.662Z,84.70
2019-01-06T22:08:57.522Z,85.00
2019-01-06T22:11:31.063Z,85.10
2019-01-06T22:14:14.082Z,85.00
2019-01-06T22:17:01.398Z,85.10
2019-01-06T22:19:38.361Z,85.00
2019-01-06T22:22:25.794Z,85.00
2019-01-06T22:25:08.879Z,85.00
2019-01-06T22:27:56.234Z,85.00
2019-01-06T22:30:33.106Z,84.90
2019-01-06T22:33:20.396Z,84.80
2019-01-06T22:35:54.038Z,84.80
2019-01-06T22:38:27.821Z,84.70
2019-01-06T22:41:04.776Z,84.70
2019-01-06T22:43:44.498Z,84.50
2019-01-06T22:46:18.399Z,84.40
2019-01-06T22:48:52.163Z,84.30
2019-01-06T22:51:28.947Z,84.20
2019-01-06T22:54:16.101Z,84.30
2019-01-06T22:57:02.026Z,84.50
2019-01-06T22:59:35.916Z,84.50
2019-01-06T23:02:15.606Z,84.50
2019-01-06T23:04:56.434Z,84.40
2019-01-06T23:07:27.314Z,84.40
2019-01-06T23:09:58.154Z,84.30
2019-01-06T23:12:31.853Z,84.40
2019-01-06T23:15:03.264Z,84.50
2019-01-06T23:17:44.490Z,84.60
2019-01-06T23:20:27.373Z,84.50
2019-01-06T23:22:58.248Z,84.60
2019-01-06T23:25:35.175Z,84.30
2019-01-06T23:28:06.040Z,84.40
2019-01-06T23:30:39.606Z,84.30
2019-01-06T23:33:10.974Z,84.40
2019-01-06T23:35:58.410Z,84.50
2019-01-06T23:38:38.097Z,84.70
2019-01-06T23:41:09.093Z,84.80
2019-01-06T23:43:48.894Z,84.80
2019-01-06T23:46:19.739Z,84.80
2019-01-06T23:48:56.435Z,84.90
2019-01-06T23:51:43.542Z,84.80
2019-01-06T23:54:14.385Z,85.00
2019-01-06T23:57:03.454Z,85.00
2019-01-06T23:59:34.313Z,85.00
